createdAt,value
2022-07-25T00:02:02.833Z,100341.00
2022-07-25T00:04:31.401Z,100347.00
2022-07-25T00:06:59.450Z,100346.00
2022-07-25T00:09:27.133Z,100346.00
2022-07-25T00:11:54.638Z,100335.00
2022-07-25T00:14:22.353Z,100335.00
2022-07-25T00:16:50.421Z,100326.00
2022-07-25T00:19:18.621Z,100317.00
2022-07-25T00:21:46.671Z,100320.00
2022-07-25T00:24:14.833Z,100308.00
2022-07-25T00:26:42.962Z,100315.00
2022-07-25T00:29:11.160Z,100296.00
2022-07-25T00:31:39.413Z,100296.00
2022-07-25T00:34:07.721Z,100296.00
2022-07-25T00:36:36.456Z,100296.00
2022-07-25T00:39:05.274Z,100292.00
2022-07-25T00:41:33.226Z,100298.00
2022-07-25T00:44:00.850Z,100298.00
2022-07-25T00:46:28.704Z,100301.00
2022-07-25T00:48:56.894Z,100302.00
2022-07-25T00:51:26.396Z,100295.00
2022-07-25T00:53:54.158Z,100291.00
2022-07-25T00:56:21.832Z,100287.00
2022-07-25T00:58:49.677Z,100288.00
2022-07-25T01:01:17.635Z,100280.00
2022-07-25T01:03:45.540Z,100279.00
2022-07-25T01:06:14.812Z,100272.00
2022-07-25T01:08:43.321Z,100273.00
2022-07-25T01:11:11.881Z,100278.00
2022-07-25T01:13:39.860Z,100263.00
2022-07-25T01:16:08.340Z,100265.00
2022-07-25T01:18:37.459Z,100259.00
2022-07-25T01:21:06.035Z,100258.00
2022-07-25T01:23:33.962Z,100251.00
2022-07-25T01:26:01.963Z,100252.00
2022-07-25T01:28:29.727Z,100250.00
2022-07-25T01:30:57.610Z,100246.00
2022-07-25T01:33:25.163Z,100245.00
2022-07-25T01:35:52.968Z,100242.00
2022-07-25T01:38:20.822Z,100242.00
2022-07-25T01:40:48.432Z,100230.00
2022-07-25T01:43:16.124Z,100229.00
2022-07-25T01:45:43.668Z,100222.00
2022-07-25T01:48:11.765Z,100225.00
2022-07-25T01:50:39.625Z,100224.00
2022-07-25T01:53:06.960Z,100226.00
2022-07-25T01:55:35.082Z,100216.00
2022-07-25T01:58:02.581Z,100226.00
2022-07-25T02:00:30.970Z,100216.00
2022-07-25T02:03:17.414Z,100213.00
2022-07-25T02:05:44.926Z,100217.00
2022-07-25T02:08:12.395Z,100211.00
2022-07-25T02:10:40.138Z,100208.00
2022-07-25T02:13:07.994Z,100213.00
2022-07-25T02:15:36.473Z,100211.00
2022-07-25T02:18:04.513Z,100209.00
2022-07-25T02:20:31.990Z,100203.00
2022-07-25T02:22:59.815Z,100198.00
2022-07-25T02:25:27.367Z,100190.00
2022-07-25T02:27:55.256Z,100194.00
2022-07-25T02:30:23.093Z,100195.00
2022-07-25T02:32:51.009Z,100186.00
2022-07-25T02:35:18.609Z,100188.00
2022-07-25T02:37:46.201Z,100192.00
2022-07-25T02:40:13.877Z,100186.00
2022-07-25T02:42:41.622Z,100184.00
2022-07-25T02:45:09.906Z,100192.00
2022-07-25T02:47:37.524Z,100185.00
2022-07-25T02:50:05.930Z,100174.00
2022-07-25T02:52:33.550Z,100177.00
2022-07-25T02:55:09.082Z,100170.00
2022-07-25T02:57:37.638Z,100171.00
2022-07-25T03:00:07.408Z,100169.00
2022-07-25T03:02:34.909Z,100165.00
2022-07-25T03:05:03.375Z,100158.00
2022-07-25T03:07:31.142Z,100154.00
2022-07-25T03:09:59.440Z,100151.00
2022-07-25T03:12:27.501Z,100147.00
2022-07-25T03:14:55.431Z,100144.00
2022-07-25T03:17:23.006Z,100143.00
2022-07-25T03:19:50.802Z,100142.00
2022-07-25T03:22:18.453Z,100138.00
2022-07-25T03:24:46.124Z,100138.00
2022-07-25T03:27:15.045Z,100135.00
2022-07-25T03:29:42.675Z,100134.00
2022-07-25T03:32:10.602Z,100136.00
2022-07-25T03:34:38.262Z,100128.00
2022-07-25T03:37:05.920Z,100125.00
2022-07-25T03:39:33.744Z,100120.00
2022-07-25T03:42:01.446Z,100118.00
2022-07-25T03:44:29.238Z,100118.00
2022-07-25T03:46:56.710Z,100116.00
2022-07-25T03:49:24.157Z,100110.00
2022-07-25T03:51:51.746Z,100116.00
2022-07-25T03:54:19.858Z,100110.00
2022-07-25T03:56:49.833Z,100112.00
2022-07-25T03:59:19.792Z,100102.00
2022-07-25T04:01:50.262Z,100111.00
2022-07-25T04:04:19.375Z,100106.00
2022-07-25T04:06:48.069Z,100103.00
2022-07-25T04:09:16.533Z,100107.00
2022-07-25T04:11:44.569Z,100096.00
2022-07-25T04:14:12.572Z,100099.00
2022-07-25T04:16:40.742Z,100098.00
2022-07-25T04:19:08.769Z,100092.00
2022-07-25T04:21:36.951Z,100089.00
2022-07-25T04:24:05.226Z,100089.00
2022-07-25T04:26:33.328Z,100084.00
2022-07-25T04:29:03.697Z,100084.00
2022-07-25T04:31:31.689Z,100068.00
2022-07-25T04:33:59.956Z,100074.00
2022-07-25T04:36:27.843Z,100079.00
2022-07-25T04:38:55.909Z,100066.00
2022-07-25T04:41:23.550Z,100068.00
2022-07-25T04:43:51.026Z,100059.00
2022-07-25T04:46:23.424Z,100061.00
2022-07-25T04:48:51.929Z,100060.00
2022-07-25T04:51:20.030Z,100057.00
2022-07-25T04:53:47.987Z,100051.00
2022-07-25T04:56:15.661Z,100056.00
2022-07-25T04:58:43.136Z,100055.00
2022-07-25T05:01:10.861Z,100047.00
2022-07-25T05:03:38.490Z,100045.00
2022-07-25T05:06:06.465Z,100044.00
2022-07-25T05:08:33.935Z,100025.00
2022-07-25T05:11:02.588Z,100035.00
2022-07-25T05:13:30.221Z,100030.00
2022-07-25T05:15:57.881Z,100026.00
2022-07-25T05:18:25.516Z,100028.00
2022-07-25T05:20:56.203Z,100028.00
2022-07-25T05:23:23.801Z,100020.00
2022-07-25T05:25:51.638Z,100022.00
2022-07-25T05:28:19.186Z,100016.00
2022-07-25T05:30:47.115Z,100016.00
2022-07-25T05:33:15.181Z,100012.00
2022-07-25T05:35:43.232Z,100010.00
2022-07-25T05:38:10.814Z,100008.00
2022-07-25T05:40:38.452Z,100006.00
2022-07-25T05:43:05.986Z,99999.00
2022-07-25T05:45:33.624Z,100003.00
2022-07-25T05:48:01.789Z,99999.00
2022-07-25T05:50:29.429Z,99997.00
2022-07-25T05:53:02.654Z,99995.00
2022-07-25T05:55:30.288Z,99989.00
2022-07-25T05:57:58.078Z,99992.00
2022-07-25T06:00:26.476Z,99991.00
2022-07-25T06:02:54.732Z,99984.00
2022-07-25T06:05:23.088Z,99991.00
2022-07-25T06:07:50.601Z,99976.00
2022-07-25T06:10:18.174Z,99977.00
2022-07-25T06:12:45.653Z,99974.00
2022-07-25T06:15:22.635Z,99983.00
2022-07-25T06:17:54.909Z,99973.00
2022-07-25T06:20:22.770Z,99973.00
2022-07-25T06:22:50.651Z,99961.00
2022-07-25T06:25:18.066Z,99967.00
2022-07-25T06:27:45.911Z,99965.00
2022-07-25T06:30:19.648Z,99964.00
2022-07-25T06:32:50.193Z,99959.00
2022-07-25T06:35:18.873Z,99963.00
2022-07-25T06:37:47.092Z,99961.00
2022-07-25T06:40:15.454Z,99948.00
2022-07-25T06:42:45.210Z,99946.00
2022-07-25T06:45:14.036Z,99938.00
2022-07-25T06:47:43.806Z,99937.00
2022-07-25T06:50:14.649Z,99935.00
2022-07-25T06:52:42.472Z,99938.00
2022-07-25T06:55:11.791Z,99932.00
2022-07-25T06:57:40.470Z,99935.00
2022-07-25T07:00:11.133Z,99928.00
2022-07-25T07:03:08.573Z,99931.00
2022-07-25T07:05:37.414Z,99927.00
2022-07-25T07:08:05.751Z,99920.00
2022-07-25T07:10:33.834Z,99922.00
2022-07-25T07:13:09.654Z,99918.00
2022-07-25T07:15:37.977Z,99917.00
2022-07-25T07:18:07.106Z,99926.00
2022-07-25T07:20:35.544Z,99913.00
2022-07-25T07:23:17.024Z,99908.00
2022-07-25T07:25:47.269Z,99910.00
2022-07-25T07:28:15.826Z,99912.00
2022-07-25T07:31:15.790Z,99902.00
2022-07-25T07:33:33.754Z,99910.00
2022-07-25T07:36:02.097Z,99901.00
2022-07-25T07:38:30.093Z,99903.00
2022-07-25T07:40:58.184Z,99901.00
2022-07-25T07:43:29.858Z,99900.00
2022-07-25T07:46:02.602Z,99895.00
2022-07-25T07:48:31.461Z,99900.00
2022-07-25T07:51:00.784Z,99897.00
2022-07-25T07:53:47.603Z,99885.00
2022-07-25T07:56:16.477Z,99885.00
2022-07-25T07:58:44.438Z,99881.00
2022-07-25T08:01:12.376Z,99882.00
2022-07-25T08:03:40.375Z,99886.00
2022-07-25T08:06:08.721Z,99883.00
2022-07-25T08:08:36.543Z,99881.00
2022-07-25T08:11:04.684Z,99880.00
2022-07-25T08:13:37.547Z,99872.00
2022-07-25T08:16:06.121Z,99875.00
2022-07-25T08:18:34.541Z,99867.00
2022-07-25T08:21:06.574Z,99862.00
2022-07-25T08:23:35.672Z,99868.00
2022-07-25T08:26:04.150Z,99850.00
2022-07-25T08:28:32.749Z,99842.00
2022-07-25T08:31:00.985Z,99850.00
2022-07-25T08:33:29.367Z,99854.00
2022-07-25T08:35:59.066Z,99857.00
2022-07-25T08:38:28.638Z,99848.00
2022-07-25T08:40:57.364Z,99854.00
2022-07-25T08:43:25.601Z,99846.00
2022-07-25T08:45:55.548Z,99847.00
2022-07-25T08:48:25.759Z,99840.00
2022-07-25T08:50:54.890Z,99841.00
2022-07-25T08:53:33.195Z,99840.00
2022-07-25T08:56:06.666Z,99839.00
2022-07-25T08:58:39.504Z,99832.00
2022-07-25T09:01:08.287Z,99837.00
2022-07-25T09:03:36.601Z,99837.00
2022-07-25T09:06:21.638Z,99836.00
2022-07-25T09:08:57.409Z,99836.00
2022-07-25T09:11:35.483Z,99837.00
2022-07-25T09:14:08.589Z,99821.00
2022-07-25T09:16:44.445Z,99824.00
2022-07-25T09:19:17.952Z,99824.00
2022-07-25T09:22:02.439Z,99821.00
2022-07-25T09:24:31.229Z,99812.00
2022-07-25T09:27:02.100Z,99834.00
2022-07-25T09:29:34.481Z,99819.00
2022-07-25T09:32:14.246Z,99827.00
2022-07-25T09:34:44.900Z,99827.00
2022-07-25T09:37:17.709Z,99825.00
2022-07-25T09:39:48.406Z,99821.00
2022-07-25T09:42:32.676Z,99810.00
2022-07-25T09:45:05.622Z,99812.00
2022-07-25T09:47:36.164Z,99806.00
2022-07-25T09:50:05.194Z,99819.00
2022-07-25T09:52:34.102Z,99819.00
2022-07-25T09:55:04.449Z,99808.00
2022-07-25T09:57:32.641Z,99798.00
2022-07-25T10:00:01.929Z,99801.00
2022-07-25T10:02:49.865Z,99797.00
2022-07-25T10:05:57.158Z,99788.00
2022-07-25T10:08:25.492Z,99790.00
2022-07-25T10:10:53.582Z,99791.00
2022-07-25T10:13:34.534Z,99781.00
2022-07-25T10:16:02.842Z,99783.00
2022-07-25T10:18:31.979Z,99773.00
2022-07-25T10:21:28.683Z,99778.00
2022-07-25T10:24:08.700Z,99767.00
2022-07-25T10:26:51.309Z,99765.00
2022-07-25T10:29:19.272Z,99762.00
2022-07-25T10:31:51.558Z,99763.00
2022-07-25T10:34:33.766Z,99754.00
2022-07-25T10:37:16.820Z,99756.00
2022-07-25T10:39:46.495Z,99768.00
2022-07-25T10:42:16.529Z,99759.00
2022-07-25T10:44:46.872Z,99751.00
2022-07-25T10:47:15.944Z,99761.00
2022-07-25T10:50:13.422Z,99758.00
2022-07-25T10:52:42.860Z,99754.00
2022-07-25T10:55:10.735Z,99753.00
2022-07-25T10:57:49.610Z,99747.00
2022-07-25T11:00:18.253Z,99738.00
2022-07-25T11:02:50.258Z,99753.00
2022-07-25T11:05:20.213Z,99739.00
2022-07-25T11:08:18.949Z,99741.00
2022-07-25T11:10:41.156Z,99734.00
2022-07-25T11:13:15.063Z,99718.00
2022-07-25T11:15:46.288Z,99715.00
2022-07-25T11:18:14.497Z,99716.00
2022-07-25T11:20:42.969Z,99714.00
2022-07-25T11:23:11.224Z,99721.00
2022-07-25T11:25:42.491Z,99725.00
2022-07-25T11:28:10.869Z,99718.00
2022-07-25T11:30:38.910Z,99725.00
2022-07-25T11:33:06.993Z,99717.00
2022-07-25T11:35:35.066Z,99721.00
2022-07-25T11:38:04.569Z,99712.00
2022-07-25T11:40:34.417Z,99704.00
2022-07-25T11:43:04.183Z,99696.00
2022-07-25T11:45:40.214Z,99706.00
2022-07-25T11:48:10.922Z,99712.00
2022-07-25T11:50:44.208Z,99703.00
2022-07-25T11:53:14.954Z,99693.00
2022-07-25T11:55:44.500Z,99683.00
2022-07-25T11:58:14.270Z,99676.00
2022-07-25T12:00:47.407Z,99677.00
2022-07-25T12:03:20.408Z,99679.00
2022-07-25T12:05:49.263Z,99685.00
2022-07-25T12:08:19.363Z,99667.00
2022-07-25T12:10:49.475Z,99674.00
2022-07-25T12:13:30.230Z,99680.00
2022-07-25T12:15:59.928Z,99668.00
2022-07-25T12:18:29.620Z,99679.00
2022-07-25T12:20:58.026Z,99673.00
2022-07-25T12:23:26.325Z,99671.00
2022-07-25T12:25:54.353Z,99663.00
2022-07-25T12:28:22.275Z,99669.00
2022-07-25T12:30:56.033Z,99672.00
2022-07-25T12:33:27.972Z,99679.00
2022-07-25T12:35:56.052Z,99680.00
2022-07-25T12:38:24.077Z,99696.00
2022-07-25T12:40:52.514Z,99692.00
2022-07-25T12:43:20.634Z,99689.00
2022-07-25T12:45:51.774Z,99678.00
2022-07-25T12:48:19.837Z,99678.00
2022-07-25T12:50:48.026Z,99684.00
2022-07-25T12:53:18.605Z,99687.00
2022-07-25T12:55:46.757Z,99675.00
2022-07-25T12:58:18.272Z,99666.00
2022-07-25T13:00:46.986Z,99662.00
2022-07-25T13:03:15.387Z,99663.00
2022-07-25T13:05:43.401Z,99666.00
2022-07-25T13:08:11.464Z,99675.00
2022-07-25T13:10:39.479Z,99662.00
2022-07-25T13:13:07.453Z,99669.00
2022-07-25T13:15:36.603Z,99665.00
2022-07-25T13:18:05.267Z,99656.00
2022-07-25T13:20:35.797Z,99676.00
2022-07-25T13:23:03.904Z,99660.00
2022-07-25T13:25:32.541Z,99659.00
2022-07-25T13:28:00.658Z,99652.00
2022-07-25T13:30:31.529Z,99659.00
2022-07-25T13:32:59.752Z,99659.00
2022-07-25T13:35:35.078Z,99663.00
2022-07-25T13:38:06.573Z,99654.00
2022-07-25T13:40:37.765Z,99659.00
2022-07-25T13:43:05.911Z,99663.00
2022-07-25T13:45:34.164Z,99661.00
2022-07-25T13:48:28.021Z,99660.00
2022-07-25T13:50:50.886Z,99663.00
2022-07-25T13:53:19.607Z,99667.00
2022-07-25T13:55:48.163Z,99669.00
2022-07-25T13:58:16.544Z,99678.00
2022-07-25T14:00:45.592Z,99678.00
2022-07-25T14:03:13.473Z,99675.00
2022-07-25T14:05:42.010Z,99682.00
2022-07-25T14:08:09.924Z,99684.00
2022-07-25T14:10:37.773Z,99676.00
2022-07-25T14:13:09.276Z,99686.00
2022-07-25T14:15:38.790Z,99681.00
2022-07-25T14:18:06.598Z,99679.00
2022-07-25T14:20:34.469Z,99671.00
2022-07-25T14:23:02.310Z,99664.00
2022-07-25T14:25:30.142Z,99648.00
2022-07-25T14:28:00.405Z,99648.00
2022-07-25T14:30:27.947Z,99642.00
2022-07-25T14:32:55.586Z,99652.00
2022-07-25T14:35:24.134Z,99664.00
2022-07-25T14:37:54.319Z,99657.00
2022-07-25T14:40:22.188Z,99666.00
2022-07-25T14:42:49.689Z,99659.00
2022-07-25T14:45:19.094Z,99663.00
2022-07-25T14:47:46.603Z,99667.00
2022-07-25T14:50:14.413Z,99664.00
2022-07-25T14:52:42.394Z,99674.00
2022-07-25T14:55:10.711Z,99676.00
2022-07-25T14:57:38.547Z,99676.00
2022-07-25T15:00:07.317Z,99667.00
2022-07-25T15:02:34.916Z,99678.00
2022-07-25T15:05:02.683Z,99665.00
2022-07-25T15:07:30.533Z,99662.00
2022-07-25T15:09:58.241Z,99657.00
2022-07-25T15:12:25.966Z,99653.00
2022-07-25T15:14:53.541Z,99655.00
2022-07-25T15:17:21.536Z,99654.00
2022-07-25T15:19:49.740Z,99641.00
2022-07-25T15:22:19.353Z,99647.00
2022-07-25T15:25:21.353Z,99641.00
2022-07-25T15:27:35.409Z,99630.00
2022-07-25T15:30:03.022Z,99642.00
2022-07-25T15:32:30.513Z,99624.00
2022-07-25T15:34:58.175Z,99620.00
2022-07-25T15:37:25.881Z,99627.00
2022-07-25T15:39:53.329Z,99635.00
2022-07-25T15:42:22.651Z,99627.00
2022-07-25T15:45:22.259Z,99633.00
2022-07-25T15:47:48.843Z,99632.00
2022-07-25T15:50:20.122Z,99635.00
2022-07-25T15:52:50.746Z,99645.00
2022-07-25T15:55:18.493Z,99646.00
2022-07-25T15:57:46.331Z,99626.00
2022-07-25T16:00:14.518Z,99622.00
2022-07-25T16:02:42.418Z,99612.00
2022-07-25T16:05:10.433Z,99611.00
2022-07-25T16:07:37.908Z,99599.00
2022-07-25T16:10:06.588Z,99594.00
2022-07-25T16:12:34.347Z,99602.00
2022-07-25T16:15:01.973Z,99604.00
2022-07-25T16:17:29.599Z,99600.00
2022-07-25T16:19:57.873Z,99598.00
2022-07-25T16:22:28.453Z,99602.00
2022-07-25T16:24:56.055Z,99599.00
2022-07-25T16:27:24.166Z,99607.00
2022-07-25T16:29:54.059Z,99618.00
2022-07-25T16:32:22.019Z,99603.00
2022-07-25T16:34:57.260Z,99611.00
2022-07-25T16:37:24.875Z,99594.00
2022-07-25T16:39:52.512Z,99592.00
2022-07-25T16:42:20.646Z,99598.00
2022-07-25T16:44:48.826Z,99590.00
2022-07-25T16:47:16.547Z,99591.00
2022-07-25T16:49:44.549Z,99594.00
2022-07-25T16:52:12.410Z,99596.00
2022-07-25T16:54:42.340Z,99605.00
2022-07-25T16:57:09.865Z,99601.00
2022-07-25T16:59:37.540Z,99602.00
2022-07-25T17:02:05.568Z,99597.00
2022-07-25T17:04:33.923Z,99598.00
2022-07-25T17:07:02.241Z,99603.00
2022-07-25T17:09:29.870Z,99607.00
2022-07-25T17:11:57.633Z,99618.00
2022-07-25T17:14:30.023Z,99622.00
2022-07-25T17:16:58.643Z,99621.00
2022-07-25T17:19:26.275Z,99621.00
2022-07-25T17:21:53.909Z,99628.00
2022-07-25T17:24:21.293Z,99629.00
2022-07-25T17:26:49.209Z,99633.00
2022-07-25T17:29:17.657Z,99630.00
2022-07-25T17:31:45.503Z,99633.00
2022-07-25T17:34:13.316Z,99636.00
2022-07-25T17:36:41.168Z,99634.00
2022-07-25T17:39:11.342Z,99629.00
2022-07-25T17:41:41.253Z,99638.00
2022-07-25T17:44:12.068Z,99645.00
2022-07-25T17:46:40.148Z,99664.00
2022-07-25T17:49:07.844Z,99659.00
2022-07-25T17:51:35.458Z,99686.00
2022-07-25T17:54:03.899Z,99683.00
2022-07-25T17:56:31.902Z,99703.00
2022-07-25T17:58:59.860Z,99710.00
2022-07-25T18:01:27.702Z,99714.00
2022-07-25T18:03:56.514Z,99728.00
2022-07-25T18:06:29.393Z,99720.00
2022-07-25T18:08:57.886Z,99728.00
2022-07-25T18:11:25.644Z,99731.00
2022-07-25T18:13:53.482Z,99729.00
2022-07-25T18:16:21.151Z,99732.00
2022-07-25T18:18:48.902Z,99726.00
2022-07-25T18:21:16.752Z,99732.00
2022-07-25T18:23:44.321Z,99742.00
2022-07-25T18:26:11.963Z,99741.00
2022-07-25T18:28:39.801Z,99748.00
2022-07-25T18:31:07.381Z,99775.00
2022-07-25T18:33:35.230Z,99805.00
2022-07-25T18:36:07.388Z,99828.00
2022-07-25T18:38:36.700Z,99834.00
2022-07-25T18:41:29.187Z,99792.00
2022-07-25T18:43:54.173Z,99807.00
2022-07-25T18:46:22.232Z,99821.00
2022-07-25T18:48:51.125Z,99841.00
2022-07-25T18:51:19.288Z,99874.00
2022-07-25T18:53:48.549Z,99895.00
2022-07-25T18:56:17.541Z,99917.00
2022-07-25T18:58:45.865Z,99928.00
2022-07-25T19:01:14.126Z,99906.00
2022-07-25T19:03:42.134Z,99890.00
2022-07-25T19:06:11.108Z,99874.00
2022-07-25T19:08:38.906Z,99867.00
2022-07-25T19:11:07.199Z,99863.00
2022-07-25T19:13:51.554Z,99865.00
2022-07-25T19:16:21.068Z,99877.00
2022-07-25T19:18:49.123Z,99885.00
2022-07-25T19:21:17.089Z,99902.00
2022-07-25T19:23:50.541Z,99924.00
2022-07-25T19:26:20.805Z,99926.00
2022-07-25T19:28:49.513Z,99930.00
2022-07-25T19:31:17.948Z,99921.00
2022-07-25T19:33:46.458Z,99904.00
2022-07-25T19:36:14.887Z,99906.00
2022-07-25T19:38:43.149Z,99915.00
2022-07-25T19:41:11.441Z,99924.00
2022-07-25T19:43:39.605Z,99925.00
2022-07-25T19:46:07.557Z,99927.00
2022-07-25T19:48:35.959Z,99930.00
2022-07-25T19:51:04.221Z,99940.00
2022-07-25T19:53:33.112Z,99919.00
2022-07-25T19:56:01.527Z,99934.00
2022-07-25T19:58:29.688Z,99938.00
2022-07-25T20:00:57.808Z,99940.00
2022-07-25T20:03:25.939Z,99941.00
2022-07-25T20:05:54.031Z,99948.00
2022-07-25T20:08:22.054Z,99953.00
2022-07-25T20:10:50.013Z,99954.00
2022-07-25T20:13:17.872Z,99950.00
2022-07-25T20:15:48.578Z,99956.00
2022-07-25T20:18:19.531Z,99953.00
2022-07-25T20:20:47.921Z,99955.00
2022-07-25T20:23:15.877Z,99953.00
2022-07-25T20:25:46.183Z,99949.00
2022-07-25T20:28:14.485Z,99957.00
2022-07-25T20:30:42.492Z,99957.00
2022-07-25T20:33:10.625Z,99955.00
2022-07-25T20:35:39.376Z,99960.00
2022-07-25T20:38:10.079Z,99957.00
2022-07-25T20:40:48.225Z,99960.00
2022-07-25T20:43:18.334Z,99964.00
2022-07-25T20:45:47.479Z,99969.00
2022-07-25T20:48:15.987Z,99968.00
2022-07-25T20:50:44.833Z,99968.00
2022-07-25T20:53:13.387Z,99967.00
2022-07-25T20:55:41.396Z,99973.00
2022-07-25T20:58:15.234Z,99973.00
2022-07-25T21:00:44.063Z,99962.00
2022-07-25T21:03:12.266Z,99963.00
2022-07-25T21:05:42.218Z,99965.00
2022-07-25T21:08:15.357Z,99971.00
2022-07-25T21:10:43.440Z,99977.00
2022-07-25T21:13:11.420Z,99977.00
2022-07-25T21:15:40.179Z,99979.00
2022-07-25T21:18:08.172Z,99979.00
2022-07-25T21:20:37.376Z,99981.00
2022-07-25T21:23:06.375Z,99985.00
2022-07-25T21:25:34.784Z,99984.00
2022-07-25T21:28:02.817Z,99991.00
2022-07-25T21:30:30.868Z,99984.00
2022-07-25T21:32:58.884Z,99991.00
2022-07-25T21:35:26.700Z,99991.00
2022-07-25T21:37:54.843Z,99991.00
2022-07-25T21:40:22.982Z,99986.00
2022-07-25T21:42:50.839Z,99992.00
2022-07-25T21:45:18.734Z,99985.00
2022-07-25T21:47:46.866Z,99986.00
2022-07-25T21:50:33.661Z,99989.00
2022-07-25T21:53:01.546Z,100000.00
2022-07-25T21:55:29.484Z,99997.00
2022-07-25T21:57:57.579Z,99994.00
2022-07-25T22:00:25.574Z,100001.00
2022-07-25T22:02:54.031Z,100006.00
2022-07-25T22:05:31.103Z,100011.00
2022-07-25T22:07:59.280Z,100014.00
2022-07-25T22:10:27.474Z,100018.00
2022-07-25T22:12:55.595Z,100020.00
2022-07-25T22:15:23.575Z,100018.00
2022-07-25T22:17:51.577Z,100022.00
2022-07-25T22:20:20.254Z,100027.00
2022-07-25T22:22:49.014Z,100018.00
2022-07-25T22:25:17.481Z,100017.00
2022-07-25T22:27:45.665Z,100018.00
2022-07-25T22:30:18.842Z,100017.00
2022-07-25T22:32:48.706Z,100011.00
2022-07-25T22:35:17.560Z,100021.00
2022-07-25T22:37:46.147Z,100020.00
2022-07-25T22:40:16.560Z,100030.00
2022-07-25T22:42:44.876Z,100029.00
2022-07-25T22:45:13.092Z,100036.00
2022-07-25T22:47:41.302Z,100039.00
2022-07-25T22:50:10.206Z,100046.00
2022-07-25T22:52:38.496Z,100048.00
2022-07-25T22:55:07.046Z,100046.00
2022-07-25T22:57:36.856Z,100048.00
2022-07-25T23:00:08.642Z,100058.00
2022-07-25T23:02:37.109Z,100052.00
2022-07-25T23:05:06.449Z,100047.00
2022-07-25T23:07:34.879Z,100044.00
2022-07-25T23:10:03.609Z,100052.00
2022-07-25T23:12:31.755Z,100061.00
2022-07-25T23:15:00.247Z,100062.00
2022-07-25T23:17:28.298Z,100064.00
2022-07-25T23:19:57.440Z,100068.00
2022-07-25T23:22:26.847Z,100067.00
2022-07-25T23:24:55.736Z,100063.00
2022-07-25T23:27:25.370Z,100061.00
2022-07-25T23:29:53.983Z,100063.00
2022-07-25T23:32:22.155Z,100056.00
2022-07-25T23:34:50.321Z,100063.00
2022-07-25T23:37:18.336Z,100058.00
2022-07-25T23:39:46.519Z,100061.00
2022-07-25T23:42:14.886Z,100062.00
2022-07-25T23:44:44.412Z,100062.00
2022-07-25T23:47:12.819Z,100056.00
2022-07-25T23:49:41.297Z,100060.00
2022-07-25T23:52:09.415Z,100059.00
2022-07-25T23:54:38.963Z,100056.00
2022-07-25T23:57:07.784Z,100061.00
2022-07-25T23:59:36.887Z,100063.00
